Lansing, Iowa
Current Conditions -  °F | °C
As of 8:15 PM on Saturday 22 Nov 2014 (Local Time) from KY51 Reporting Station
Overcast Overcast  
Wind Chill: 39°   Ceiling: 500
Heat Index: 44°   Visibility: 3mi
Dew Point: 44°   Wind: 10mph
Humidity: 100%   Direction: 200°SSW
Pressure: 29.7"   Gusts: NA
Location:  43.36°N, 91.22°W
Report Text: KY51 230215Z AUTO 20009KT 3SM OVC005 07/07 A2970 RMK AO1 T00670067
Loading
Personal Weather Stations






























Interactive Weather Map New forecast layout! Learn more

10-Day Weather Forecast

Advertisements
Track Severe Weather on mobile